createdAt,value
2023-11-30T00:00:18.477Z,97.73
2023-11-30T00:03:05.626Z,97.94
2023-11-30T00:05:32.919Z,98.22
2023-11-30T00:07:59.933Z,98.13
2023-11-30T00:10:26.989Z,97.65
2023-11-30T00:12:54.128Z,97.64
2023-11-30T00:15:21.182Z,97.41
2023-11-30T00:17:47.962Z,97.49
2023-11-30T00:20:14.990Z,97.83
2023-11-30T00:22:42.313Z,97.62
2023-11-30T00:25:10.006Z,97.66
2023-11-30T00:27:36.833Z,97.48
2023-11-30T00:30:04.318Z,96.97
2023-11-30T00:32:31.453Z,96.72
2023-11-30T00:34:58.390Z,96.82
2023-11-30T00:37:25.119Z,96.72
2023-11-30T00:39:52.108Z,96.58
2023-11-30T00:42:19.163Z,96.40
2023-11-30T00:44:46.165Z,95.96
2023-11-30T00:47:13.004Z,95.62
2023-11-30T00:49:39.837Z,95.44
2023-11-30T00:52:06.605Z,95.77
2023-11-30T00:54:33.537Z,95.80
2023-11-30T00:57:00.302Z,96.04
2023-11-30T00:59:27.222Z,95.64
2023-11-30T01:01:53.966Z,95.69
2023-11-30T01:04:21.260Z,95.34
2023-11-30T01:06:49.177Z,95.90
2023-11-30T01:09:16.175Z,96.04
2023-11-30T01:11:44.196Z,95.90
2023-11-30T01:14:11.447Z,96.01
2023-11-30T01:16:38.396Z,96.04
2023-11-30T01:19:06.124Z,95.29
2023-11-30T01:21:33.515Z,95.29
2023-11-30T01:24:00.590Z,95.69
2023-11-30T01:26:27.601Z,95.93
2023-11-30T01:28:54.259Z,95.81
2023-11-30T01:31:21.177Z,95.95
2023-11-30T01:33:49.502Z,96.40
2023-11-30T01:36:16.745Z,96.48
2023-11-30T01:38:43.776Z,96.24
2023-11-30T01:41:10.584Z,95.96
2023-11-30T01:43:37.251Z,95.90
2023-11-30T01:46:05.280Z,95.73
2023-11-30T01:48:33.144Z,95.81
2023-11-30T01:51:03.342Z,95.94
2023-11-30T01:53:30.245Z,95.93
2023-11-30T01:55:58.117Z,95.37
2023-11-30T01:58:25.486Z,95.53
2023-11-30T02:00:53.338Z,95.79
2023-11-30T02:03:21.440Z,95.92
2023-11-30T02:05:52.086Z,96.01
2023-11-30T02:08:19.186Z,96.28
2023-11-30T02:10:45.908Z,96.23
2023-11-30T02:13:12.879Z,96.24
2023-11-30T02:15:39.724Z,95.69
2023-11-30T02:18:06.951Z,95.57
2023-11-30T02:20:33.940Z,95.74
2023-11-30T02:23:00.764Z,95.84
2023-11-30T02:25:27.497Z,96.25
2023-11-30T02:27:54.339Z,96.18
2023-11-30T02:30:21.536Z,96.54
2023-11-30T02:32:49.637Z,96.47
2023-11-30T02:35:16.725Z,96.73
2023-11-30T02:37:43.768Z,97.08
2023-11-30T02:40:11.113Z,97.09
2023-11-30T02:42:37.964Z,97.24
2023-11-30T02:45:05.877Z,97.14
2023-11-30T02:47:33.102Z,97.49
2023-11-30T02:49:59.925Z,98.17
2023-11-30T02:52:26.560Z,98.28
2023-11-30T02:54:53.178Z,97.89
2023-11-30T02:57:19.950Z,97.93
2023-11-30T02:59:47.521Z,97.85
2023-11-30T03:02:14.896Z,97.56
2023-11-30T03:04:41.903Z,97.02
2023-11-30T03:07:08.746Z,96.61
2023-11-30T03:09:35.592Z,96.54
2023-11-30T03:12:02.448Z,95.82
2023-11-30T03:14:29.110Z,95.37
2023-11-30T03:16:57.560Z,95.05
2023-11-30T03:19:24.836Z,95.00
2023-11-30T03:21:52.676Z,95.24
2023-11-30T03:24:20.513Z,95.42
2023-11-30T03:26:47.490Z,96.05
2023-11-30T03:29:14.668Z,96.22
2023-11-30T03:31:42.091Z,95.77
2023-11-30T03:34:09.035Z,95.79
2023-11-30T03:36:35.950Z,95.63
2023-11-30T03:39:03.204Z,96.05
2023-11-30T03:41:30.385Z,95.75
2023-11-30T03:43:57.632Z,96.38
2023-11-30T03:46:25.554Z,96.42
2023-11-30T03:48:54.193Z,96.16
2023-11-30T03:51:21.615Z,96.63
2023-11-30T03:53:48.696Z,96.89
2023-11-30T03:56:15.838Z,97.01
2023-11-30T03:58:42.707Z,97.07
2023-11-30T04:01:09.530Z,96.91
2023-11-30T04:03:36.412Z,96.52
2023-11-30T04:06:04.155Z,96.36
2023-11-30T04:08:31.869Z,96.32
2023-11-30T04:11:00.070Z,96.70
2023-11-30T04:13:27.019Z,97.03
2023-11-30T04:15:54.589Z,97.80
2023-11-30T04:18:22.327Z,98.06
2023-11-30T04:20:50.257Z,98.62
2023-11-30T04:23:16.968Z,98.45
2023-11-30T04:25:43.787Z,97.88
2023-11-30T04:28:11.249Z,97.84
2023-11-30T04:30:38.187Z,97.96
2023-11-30T04:33:07.029Z,98.35
2023-11-30T04:35:34.142Z,98.18
2023-11-30T04:38:02.004Z,98.26
2023-11-30T04:40:29.566Z,98.02
2023-11-30T04:42:56.235Z,98.35
2023-11-30T04:45:23.144Z,98.92
2023-11-30T04:47:50.739Z,98.92
2023-11-30T04:50:18.064Z,98.75
2023-11-30T04:52:44.997Z,98.93
2023-11-30T04:55:12.666Z,98.89
2023-11-30T04:57:39.531Z,98.71
2023-11-30T05:00:07.648Z,98.11
2023-11-30T05:02:38.704Z,97.91
2023-11-30T05:05:06.838Z,98.06
2023-11-30T05:07:33.742Z,97.91
2023-11-30T05:10:00.987Z,97.74
2023-11-30T05:12:27.849Z,97.95
2023-11-30T05:14:54.680Z,99.06
2023-11-30T05:17:21.524Z,99.36
2023-11-30T05:19:48.524Z,99.47
2023-11-30T05:22:15.417Z,99.73
2023-11-30T05:24:42.459Z,99.98
2023-11-30T05:27:09.532Z,99.92
2023-11-30T05:29:36.461Z,99.96
2023-11-30T05:32:03.756Z,99.97
2023-11-30T05:34:30.386Z,99.98
2023-11-30T05:36:57.005Z,99.97
2023-11-30T05:39:23.693Z,100.00
2023-11-30T05:41:50.565Z,100.00
2023-11-30T05:44:17.513Z,100.00
2023-11-30T05:46:46.563Z,100.00
2023-11-30T05:49:14.733Z,100.00
2023-11-30T05:51:41.631Z,100.00
2023-11-30T05:54:09.361Z,100.00
2023-11-30T05:56:36.632Z,100.00
2023-11-30T05:59:04.528Z,99.98
2023-11-30T06:01:31.365Z,99.59
2023-11-30T06:03:58.575Z,99.20
2023-11-30T06:06:25.599Z,99.06
2023-11-30T06:08:52.469Z,99.16
2023-11-30T06:11:19.344Z,99.34
2023-11-30T06:13:46.175Z,99.40
2023-11-30T06:16:13.619Z,99.35
2023-11-30T06:18:40.444Z,99.06
2023-11-30T06:21:10.139Z,99.19
2023-11-30T06:23:38.157Z,99.19
2023-11-30T06:26:07.631Z,99.27
2023-11-30T06:28:34.397Z,98.89
2023-11-30T06:31:01.572Z,98.43
2023-11-30T06:33:29.391Z,98.35
2023-11-30T06:35:56.260Z,97.85
2023-11-30T06:38:22.996Z,96.98
2023-11-30T06:40:49.737Z,97.23
2023-11-30T06:43:16.784Z,97.18
2023-11-30T06:45:43.963Z,96.79
2023-11-30T06:48:10.848Z,96.49
2023-11-30T06:50:37.934Z,96.09
2023-11-30T06:53:04.671Z,95.98
2023-11-30T06:55:31.461Z,95.63
2023-11-30T06:57:58.358Z,95.43
2023-11-30T07:00:27.510Z,95.41
2023-11-30T07:02:57.066Z,95.34
2023-11-30T07:05:24.663Z,95.30
2023-11-30T07:07:51.472Z,94.99
2023-11-30T07:10:18.212Z,94.57
2023-11-30T07:12:46.448Z,94.41
2023-11-30T07:15:13.358Z,93.58
2023-11-30T07:17:40.490Z,92.87
2023-11-30T07:20:08.650Z,93.01
2023-11-30T07:22:35.690Z,92.88
2023-11-30T07:25:04.488Z,92.62
2023-11-30T07:27:31.279Z,92.78
2023-11-30T07:29:57.880Z,92.29
2023-11-30T07:32:24.782Z,91.65
2023-11-30T07:34:51.656Z,91.03
2023-11-30T07:37:21.465Z,91.11
2023-11-30T07:39:48.415Z,90.56
2023-11-30T07:42:23.714Z,90.33
2023-11-30T07:44:56.527Z,90.72
2023-11-30T07:47:23.481Z,90.51
2023-11-30T07:49:50.729Z,89.16
2023-11-30T07:52:18.205Z,89.33
2023-11-30T07:54:45.027Z,89.58
2023-11-30T07:57:12.438Z,89.44
2023-11-30T07:59:39.342Z,89.57
2023-11-30T08:02:08.730Z,89.34
2023-11-30T08:04:38.823Z,89.72
2023-11-30T08:07:05.909Z,90.54
2023-11-30T08:09:32.982Z,90.34
2023-11-30T08:11:59.803Z,90.55
2023-11-30T08:14:26.630Z,90.48
2023-11-30T08:16:53.491Z,88.91
2023-11-30T08:19:20.879Z,86.67
2023-11-30T08:21:48.317Z,86.45
2023-11-30T08:24:15.350Z,85.38
2023-11-30T08:26:42.548Z,84.35
2023-11-30T08:29:09.433Z,84.49
2023-11-30T08:31:37.439Z,83.89
2023-11-30T08:34:04.267Z,83.03
2023-11-30T08:36:31.235Z,83.84
2023-11-30T08:38:58.450Z,84.39
2023-11-30T08:41:25.379Z,84.91
2023-11-30T08:43:52.329Z,84.64
2023-11-30T08:46:19.393Z,85.21
2023-11-30T08:48:46.890Z,85.74
2023-11-30T08:51:14.717Z,86.13
2023-11-30T08:53:41.546Z,85.73
2023-11-30T08:56:09.211Z,85.08
2023-11-30T08:58:36.563Z,85.00
2023-11-30T09:01:04.530Z,84.99
2023-11-30T09:03:31.505Z,85.14
2023-11-30T09:05:58.314Z,84.61
2023-11-30T09:08:25.268Z,84.35
2023-11-30T09:10:52.115Z,83.67
2023-11-30T09:13:19.017Z,82.27
2023-11-30T09:15:46.878Z,79.75
2023-11-30T09:18:13.985Z,77.13
2023-11-30T09:20:40.906Z,73.57
2023-11-30T09:23:08.171Z,70.32
2023-11-30T09:25:35.728Z,67.13
2023-11-30T09:28:03.386Z,64.33
2023-11-30T09:30:30.265Z,62.95
2023-11-30T09:32:57.228Z,62.09
2023-11-30T09:35:24.939Z,60.66
2023-11-30T09:37:53.234Z,59.31
2023-11-30T09:40:20.568Z,58.18
2023-11-30T09:42:47.580Z,58.04
2023-11-30T09:45:15.414Z,58.71
2023-11-30T09:47:42.359Z,58.36
2023-11-30T09:50:09.785Z,57.37
2023-11-30T09:52:38.054Z,58.48
2023-11-30T09:55:06.280Z,58.67
2023-11-30T09:57:32.992Z,57.26
2023-11-30T09:59:59.935Z,56.55
2023-11-30T10:02:28.843Z,55.46
2023-11-30T10:04:57.600Z,52.98
2023-11-30T10:07:24.746Z,52.99
2023-11-30T10:09:51.787Z,51.33
2023-11-30T10:12:20.597Z,51.40
2023-11-30T10:14:47.378Z,50.18
2023-11-30T10:17:14.433Z,48.61
2023-11-30T10:19:41.699Z,47.08
2023-11-30T10:22:08.564Z,47.72
2023-11-30T10:24:35.527Z,46.60
2023-11-30T10:27:06.584Z,46.15
2023-11-30T10:29:41.668Z,47.29
2023-11-30T10:32:13.965Z,45.09
2023-11-30T10:34:47.959Z,45.59
2023-11-30T10:37:20.484Z,44.07
2023-11-30T10:40:00.295Z,42.56
2023-11-30T10:42:29.124Z,42.87
2023-11-30T10:45:01.770Z,42.39
2023-11-30T10:47:30.541Z,43.33
2023-11-30T10:50:06.630Z,42.93
2023-11-30T10:52:35.810Z,42.97
2023-11-30T10:55:14.424Z,43.14
2023-11-30T10:57:43.282Z,42.40
2023-11-30T11:00:12.766Z,41.92
2023-11-30T11:02:42.326Z,42.72
2023-11-30T11:05:13.713Z,41.43
2023-11-30T11:07:52.010Z,41.91
2023-11-30T11:10:32.247Z,41.82
2023-11-30T11:13:00.618Z,43.14
2023-11-30T11:15:29.258Z,43.16
2023-11-30T11:18:04.432Z,43.99
2023-11-30T11:20:33.071Z,46.72
2023-11-30T11:23:03.051Z,47.52
2023-11-30T11:25:35.018Z,48.52
2023-11-30T11:28:01.962Z,49.42
2023-11-30T11:30:28.975Z,50.70
2023-11-30T11:33:00.363Z,51.94
2023-11-30T11:35:27.683Z,52.49
2023-11-30T11:37:58.564Z,55.82
2023-11-30T11:40:26.638Z,58.47
2023-11-30T11:42:54.390Z,57.67
2023-11-30T11:45:21.997Z,57.22
2023-11-30T11:47:48.946Z,57.72
2023-11-30T11:50:16.347Z,57.13
2023-11-30T11:52:43.396Z,59.18
2023-11-30T11:55:12.710Z,58.81
2023-11-30T11:57:44.343Z,58.90
2023-11-30T12:00:18.645Z,59.13
2023-11-30T12:02:46.805Z,57.32
2023-11-30T12:05:21.340Z,57.12
2023-11-30T12:07:53.337Z,55.26
2023-11-30T12:10:39.836Z,54.51
2023-11-30T12:13:08.937Z,56.14
2023-11-30T12:15:36.132Z,58.82
2023-11-30T12:18:04.307Z,58.79
2023-11-30T12:20:34.048Z,56.41
2023-11-30T12:23:01.630Z,56.56
2023-11-30T12:25:29.303Z,56.58
2023-11-30T12:27:56.763Z,56.43
2023-11-30T12:30:26.874Z,56.56
2023-11-30T12:32:54.202Z,57.00
2023-11-30T12:35:21.262Z,57.51
2023-11-30T12:37:51.898Z,57.98
2023-11-30T12:40:19.044Z,58.17
2023-11-30T12:42:46.385Z,58.32
2023-11-30T12:45:14.231Z,58.98
2023-11-30T12:47:42.093Z,58.91
2023-11-30T12:50:11.362Z,58.80
2023-11-30T12:52:39.095Z,59.15
2023-11-30T12:55:07.144Z,59.36
2023-11-30T12:57:34.964Z,59.61
2023-11-30T13:00:03.621Z,59.84
2023-11-30T13:02:30.547Z,60.80
2023-11-30T13:04:57.617Z,60.93
2023-11-30T13:07:24.975Z,61.09
2023-11-30T13:09:51.999Z,61.36
2023-11-30T13:12:19.031Z,61.04
2023-11-30T13:14:45.904Z,60.52
2023-11-30T13:17:13.980Z,60.25
2023-11-30T13:19:42.098Z,60.13
2023-11-30T13:22:10.936Z,60.46
2023-11-30T13:24:38.428Z,61.73
2023-11-30T13:27:05.345Z,61.43
2023-11-30T13:29:32.773Z,61.95
2023-11-30T13:31:59.640Z,62.22
2023-11-30T13:34:26.587Z,62.15
2023-11-30T13:36:53.646Z,62.79
2023-11-30T13:39:20.437Z,63.15
2023-11-30T13:41:48.246Z,63.52
2023-11-30T13:44:15.296Z,64.02
2023-11-30T13:46:42.866Z,64.38
2023-11-30T13:49:14.295Z,65.34
2023-11-30T13:51:41.581Z,67.79
2023-11-30T13:54:08.722Z,66.89
2023-11-30T13:56:36.975Z,67.61
2023-11-30T13:59:04.028Z,69.20
2023-11-30T14:01:31.247Z,70.40
2023-11-30T14:03:58.181Z,71.38
2023-11-30T14:06:25.115Z,72.94
2023-11-30T14:08:52.200Z,74.14
2023-11-30T14:11:19.298Z,74.88
2023-11-30T14:13:46.107Z,75.40
2023-11-30T14:16:15.221Z,75.21
2023-11-30T14:18:43.229Z,75.42
2023-11-30T14:21:10.219Z,75.53
2023-11-30T14:23:37.268Z,75.44
2023-11-30T14:26:04.831Z,75.94
2023-11-30T14:28:31.774Z,76.41
2023-11-30T14:30:58.760Z,76.75
2023-11-30T14:33:25.998Z,78.74
2023-11-30T14:35:52.852Z,78.81
2023-11-30T14:38:19.661Z,78.45
2023-11-30T14:40:46.700Z,78.77
2023-11-30T14:43:14.818Z,79.85
2023-11-30T14:45:42.757Z,80.37
2023-11-30T14:48:10.111Z,81.44
2023-11-30T14:50:37.147Z,82.41
2023-11-30T14:53:05.260Z,82.45
2023-11-30T14:55:33.088Z,82.64
2023-11-30T14:57:59.967Z,82.35
2023-11-30T15:00:28.017Z,83.44
2023-11-30T15:02:55.049Z,84.21
2023-11-30T15:05:22.099Z,84.75
2023-11-30T15:07:48.937Z,85.31
2023-11-30T15:10:17.217Z,85.84
2023-11-30T15:12:45.309Z,86.24
2023-11-30T15:15:15.143Z,86.77
2023-11-30T15:17:48.890Z,86.99
2023-11-30T15:20:17.810Z,87.07
2023-11-30T15:22:45.973Z,86.65
2023-11-30T15:25:17.434Z,86.40
2023-11-30T15:27:45.078Z,87.25
2023-11-30T15:30:13.602Z,87.76
2023-11-30T15:32:40.816Z,87.91
2023-11-30T15:35:08.066Z,88.02
2023-11-30T15:37:36.352Z,88.12
2023-11-30T15:40:11.076Z,88.32
2023-11-30T15:42:39.142Z,89.02
2023-11-30T15:45:09.601Z,89.82
2023-11-30T15:47:38.732Z,90.15
2023-11-30T15:50:06.437Z,90.33
2023-11-30T15:52:33.604Z,90.61
2023-11-30T15:55:00.652Z,90.45
2023-11-30T15:57:28.306Z,90.54
2023-11-30T15:59:55.210Z,91.19
2023-11-30T16:02:22.149Z,91.76
2023-11-30T16:04:49.233Z,91.66
2023-11-30T16:07:16.182Z,90.99
2023-11-30T16:09:44.707Z,91.25
2023-11-30T16:12:11.702Z,91.41
2023-11-30T16:14:40.593Z,91.71
2023-11-30T16:17:08.785Z,92.63
2023-11-30T16:19:38.910Z,93.07
2023-11-30T16:22:06.010Z,92.85
2023-11-30T16:24:33.117Z,93.15
2023-11-30T16:27:00.437Z,93.51
2023-11-30T16:29:27.249Z,93.95
2023-11-30T16:31:54.675Z,93.99
2023-11-30T16:34:23.224Z,94.14
2023-11-30T16:36:50.092Z,94.07
2023-11-30T16:39:17.476Z,93.36
2023-11-30T16:41:44.284Z,93.17
2023-11-30T16:44:12.237Z,92.56
2023-11-30T16:46:39.762Z,92.15
2023-11-30T16:49:06.781Z,91.87
2023-11-30T16:51:33.914Z,91.16
2023-11-30T16:54:00.713Z,90.58
2023-11-30T16:56:28.087Z,90.02
2023-11-30T16:58:55.951Z,89.37
2023-11-30T17:01:22.962Z,88.51
2023-11-30T17:03:50.289Z,87.90
2023-11-30T17:06:17.657Z,87.71
2023-11-30T17:08:45.168Z,87.47
2023-11-30T17:11:12.058Z,87.58
2023-11-30T17:13:41.363Z,87.47
2023-11-30T17:16:09.533Z,86.77
2023-11-30T17:18:36.803Z,85.62
2023-11-30T17:21:04.485Z,84.91
2023-11-30T17:23:31.732Z,84.48
2023-11-30T17:25:59.041Z,84.01
2023-11-30T17:28:26.020Z,83.81
2023-11-30T17:30:53.977Z,83.68
2023-11-30T17:33:21.598Z,83.61
2023-11-30T17:35:48.963Z,83.78
2023-11-30T17:38:16.015Z,83.55
2023-11-30T17:40:42.925Z,83.52
2023-11-30T17:43:09.707Z,83.78
2023-11-30T17:45:36.718Z,83.93
2023-11-30T17:48:07.296Z,84.09
2023-11-30T17:50:34.100Z,84.92
2023-11-30T17:53:01.977Z,85.45
2023-11-30T17:55:31.056Z,85.42
2023-11-30T17:57:58.181Z,84.96
2023-11-30T18:00:27.113Z,84.39
2023-11-30T18:02:54.244Z,82.90
2023-11-30T18:05:21.388Z,82.39
2023-11-30T18:07:48.393Z,82.66
2023-11-30T18:10:15.381Z,82.77
2023-11-30T18:12:42.443Z,83.55
2023-11-30T18:15:09.841Z,84.21
2023-11-30T18:17:36.781Z,84.27
2023-11-30T18:20:04.707Z,84.37
2023-11-30T18:22:33.483Z,84.22
2023-11-30T18:25:01.181Z,84.06
2023-11-30T18:27:28.513Z,83.76
2023-11-30T18:29:55.551Z,83.85
2023-11-30T18:32:23.185Z,83.69
2023-11-30T18:34:49.990Z,83.39
2023-11-30T18:37:17.039Z,83.39
2023-11-30T18:39:44.353Z,83.46
2023-11-30T18:42:13.552Z,83.61
2023-11-30T18:44:40.604Z,83.62
2023-11-30T19:18:50.696Z,78.72
2023-11-30T19:21:18.366Z,79.05
2023-11-30T19:23:45.805Z,79.04
2023-11-30T19:26:13.248Z,78.26
2023-11-30T19:28:40.568Z,77.24
2023-11-30T19:31:07.769Z,77.12
2023-11-30T19:33:37.939Z,77.12
2023-11-30T19:36:04.994Z,77.25
2023-11-30T19:38:33.173Z,77.60
2023-11-30T19:41:01.083Z,77.63
2023-11-30T19:43:28.150Z,78.04
2023-11-30T19:45:55.955Z,78.50
2023-11-30T19:48:23.939Z,79.21
2023-11-30T19:50:51.115Z,79.87
2023-11-30T19:53:18.264Z,80.47
2023-11-30T19:55:47.047Z,81.01
2023-11-30T19:58:14.831Z,81.42
2023-11-30T20:00:44.852Z,82.02
2023-11-30T20:03:15.351Z,82.56
2023-11-30T20:05:42.524Z,83.32
2023-11-30T20:08:09.669Z,83.74
2023-11-30T20:10:36.603Z,84.12
2023-11-30T20:13:03.595Z,84.68
2023-11-30T20:15:30.681Z,85.06
2023-11-30T20:17:57.507Z,85.24
2023-11-30T20:20:24.803Z,85.61
2023-11-30T20:22:51.752Z,85.98
2023-11-30T20:25:18.696Z,86.45
2023-11-30T20:27:45.892Z,86.92
2023-11-30T20:30:13.450Z,86.93
2023-11-30T20:32:43.427Z,87.30
2023-11-30T20:35:10.987Z,87.31
2023-11-30T20:37:37.937Z,87.31
2023-11-30T20:40:05.652Z,87.60
2023-11-30T20:42:32.743Z,87.81
2023-11-30T20:44:59.679Z,87.92
2023-11-30T20:47:26.654Z,88.17
2023-11-30T20:49:53.795Z,88.88
2023-11-30T20:52:20.819Z,89.25
2023-11-30T20:54:47.970Z,89.39
2023-11-30T20:57:18.098Z,89.77
2023-11-30T20:59:44.939Z,90.06
2023-11-30T21:02:14.117Z,90.61
2023-11-30T21:04:41.262Z,90.99
2023-11-30T21:07:08.655Z,91.49
2023-11-30T21:09:37.716Z,92.00
2023-11-30T21:12:05.025Z,92.15
2023-11-30T21:14:32.402Z,92.30
2023-11-30T21:16:59.488Z,92.73
2023-11-30T21:19:26.737Z,93.20
2023-11-30T21:21:53.532Z,93.32
2023-11-30T21:24:21.458Z,93.17
2023-11-30T21:26:48.293Z,93.23
2023-11-30T21:29:15.246Z,93.45
2023-11-30T21:31:42.219Z,93.80
2023-11-30T21:34:09.497Z,94.45
2023-11-30T21:36:42.365Z,94.71
2023-11-30T21:39:11.879Z,94.63
2023-11-30T21:41:38.874Z,94.59
2023-11-30T21:44:05.827Z,95.12
2023-11-30T21:46:41.469Z,95.81
2023-11-30T21:49:08.733Z,96.41
2023-11-30T21:51:36.494Z,96.99
2023-11-30T21:54:03.741Z,97.61
2023-11-30T21:56:30.584Z,98.13
2023-11-30T21:58:57.552Z,98.17
2023-11-30T22:01:24.749Z,98.47
2023-11-30T22:03:51.915Z,98.72
2023-11-30T22:06:18.794Z,98.94
2023-11-30T22:08:49.449Z,99.14
2023-11-30T22:11:19.362Z,99.25
2023-11-30T22:13:46.207Z,99.40
2023-11-30T22:16:14.997Z,99.56
2023-11-30T22:18:43.305Z,99.64
2023-11-30T22:21:10.170Z,100.00
2023-11-30T22:23:37.226Z,100.00
2023-11-30T22:26:04.892Z,100.00
2023-11-30T22:28:31.793Z,100.00
2023-11-30T22:31:00.234Z,100.00
2023-11-30T22:33:27.564Z,100.00
2023-11-30T22:35:54.695Z,100.00
2023-11-30T22:38:21.973Z,100.00
2023-11-30T22:40:49.121Z,100.00
2023-11-30T22:43:15.956Z,100.00
2023-11-30T22:45:42.916Z,100.00
2023-11-30T22:48:09.887Z,100.00
2023-11-30T22:50:36.843Z,100.00
2023-11-30T22:53:03.942Z,100.00
2023-11-30T22:55:31.105Z,100.00
2023-11-30T22:57:58.147Z,100.00
2023-11-30T23:00:25.733Z,100.00
2023-11-30T23:02:53.016Z,100.00
2023-11-30T23:05:20.752Z,99.95
2023-11-30T23:07:47.656Z,99.66
2023-11-30T23:10:17.573Z,99.38
2023-11-30T23:12:45.275Z,99.29
2023-11-30T23:15:12.022Z,99.06
2023-11-30T23:17:38.935Z,98.97
2023-11-30T23:20:06.894Z,98.94
2023-11-30T23:22:34.249Z,98.96
2023-11-30T23:25:03.247Z,99.08
2023-11-30T23:27:30.173Z,99.06
2023-11-30T23:29:57.437Z,98.94
2023-11-30T23:32:25.435Z,99.27
2023-11-30T23:34:52.557Z,99.62
2023-11-30T23:37:19.497Z,99.90
2023-11-30T23:39:46.469Z,100.00
2023-11-30T23:42:13.569Z,100.00
2023-11-30T23:44:40.540Z,100.00
2023-11-30T23:47:07.596Z,100.00
2023-11-30T23:49:38.073Z,100.00
2023-11-30T23:52:05.914Z,100.00
2023-11-30T23:54:33.194Z,100.00
2023-11-30T23:57:00.338Z,100.00
2023-11-30T23:59:27.154Z,100.00
